Oozu Maru — JD4106 — position and weather

sailwx.info

Track history (hours):
 
Tides and Currents Weather Stations Pressure Air Temp Water Temp Dewpoint Dewpoint Depression Visibility Wind Speed Wind Dir Waves Ship Positions

Oozu Maru

Last reported at 2018-Feb-21 17:30 UTC. Time now 2018-Feb-21 17:32 UTC.
Position N 35°33' E 140°02'.

Length 90 m; draft 4.5 m.

Type: Tanker. MMSI: 431008812.

Date/timePositionNaut miles runAvg speedWind from/ knotsBaromVisibWave heightAir tempDewpointWater temp
2018-Feb-21 17:30N 35°33' E 140°02'0 0.0
2018-Feb-21 16:57N 35°33' E 140°02'0 0.0
2018-Feb-21 16:30N 35°33' E 140°02'0 0.0
2018-Feb-21 15:57N 35°33' E 140°02'0 0.0
2018-Feb-21 15:30N 35°33' E 140°02'0 0.0
2018-Feb-21 15:00N 35°33' E 140°02'0 0.0
2018-Feb-21 14:27N 35°33' E 140°02'0 0.0
2018-Feb-21 14:00N 35°33' E 140°02'0 0.0
2018-Feb-21 13:27N 35°33' E 140°02'0 0.0
2018-Feb-21 13:00N 35°33' E 140°02'0 0.0
2018-Feb-21 12:30N 35°33' E 140°02'0 0.0
2018-Feb-21 12:00N 35°33' E 140°02'0 0.0
2018-Feb-21 11:30N 35°33' E 140°02'0 0.0
2018-Feb-21 11:00N 35°33' E 140°02'0 0.0
2018-Feb-21 10:27N 35°33' E 140°02'0 0.0
2018-Feb-21 09:57N 35°33' E 140°02'0 0.0
2018-Feb-21 09:30N 35°33' E 140°02'0 0.0
2018-Feb-21 09:00N 35°33' E 140°02'0 0.0
2018-Feb-21 08:30N 35°33' E 140°02'0 0.0
2018-Feb-21 07:57N 35°33' E 140°02'0 0.0
2018-Feb-21 07:30N 35°33' E 140°02'0 0.1
2018-Feb-21 07:00N 35°33' E 140°02'0 0.0
2018-Feb-21 06:24N 35°33' E 140°02'0 0.2
2018-Feb-21 05:57N 35°33' E 140°02'0 0.1
2018-Feb-21 05:30N 35°33' E 140°02'0 0.5
2018-Feb-21 05:00N 35°33' E 140°02'713.5
2018-Feb-21 04:30N 35°30' E 139°55'713.8
2018-Feb-21 04:00N 35°26' E 139°48'612.9
2018-Feb-21 03:31N 35°20' E 139°44'612.0
2018-Feb-21 03:00N 35°14' E 139°47'713.6
2018-Feb-21 02:30N 35°08' E 139°45'714.0
2018-Feb-21 02:00N 35°03' E 139°39'713.7
2018-Feb-21 01:29N 34°58' E 139°32'713.9
2018-Feb-21 00:59N 34°53' E 139°26'713.7
2018-Feb-21 00:30N 34°49' E 139°20'713.8
2018-Feb-21 00:00N 34°44' E 139°14'713.2
2018-Feb-20 23:30N 34°40' E 139°08'712.6
2018-Feb-20 22:59N 34°35' E 139°02'612.4
2018-Feb-20 22:30N 34°32' E 138°56'813.7
2018-Feb-20 21:57N 34°30' E 138°47'714.5
2018-Feb-20 21:27N 34°29' E 138°38'714.7
2018-Feb-20 20:59N 34°28' E 138°30'814.3
2018-Feb-20 20:25N 34°26' E 138°21'715.3
2018-Feb-20 19:59N 34°25' E 138°13'15812.5
2018-Feb-20 07:23N 33°43' E 135°09'615.0
2018-Feb-20 06:58N 33°48' E 135°04'715.0
2018-Feb-20 06:30N 33°54' E 134°60'815.3
2018-Feb-20 06:00N 34°01' E 134°59'815.1
2018-Feb-20 05:30N 34°09' E 134°58'715.0
2018-Feb-20 05:00N 34°16' E 134°58'713.7
2018-Feb-20 04:30N 34°23' E 135°01'714.4
2018-Feb-20 04:00N 34°27' E 135°08'714.0
2018-Feb-20 03:30N 34°32' E 135°15'713.9
2018-Feb-20 03:00N 34°36' E 135°21'4 7.5
2018-Feb-20 02:30N 34°35' E 135°26'0 0.0
2018-Feb-20 01:59N 34°35' E 135°26'0 0.0
2018-Feb-20 01:29N 34°35' E 135°26'0 0.0
2018-Feb-20 00:59N 34°35' E 135°26'0 0.0
2018-Feb-20 00:29N 34°35' E 135°26'0 0.0
2018-Feb-19 23:59N 34°35' E 135°26'0 0.0
2018-Feb-19 23:29N 34°35' E 135°26'0 0.0
2018-Feb-19 22:59N 34°35' E 135°26'1 2.0
2018-Feb-19 22:30N 34°35' E 135°25'4 8.7
2018-Feb-19 22:00N 34°35' E 135°20'2 4.3
2018-Feb-19 21:29N 34°33' E 135°18'0 0.0
2018-Feb-19 20:59N 34°33' E 135°18'0 0.0
2018-Feb-19 20:29N 34°33' E 135°18'0 0.0
2018-Feb-19 19:59N 34°33' E 135°18'0 0.0
2018-Feb-19 19:29N 34°33' E 135°18'0 0.0
2018-Feb-19 18:59N 34°33' E 135°18'0 0.0
2018-Feb-19 18:29N 34°33' E 135°18'0 0.0
2018-Feb-19 17:59N 34°33' E 135°18'0 0.0
2018-Feb-19 17:29N 34°33' E 135°18'0 0.0
2018-Feb-19 16:59N 34°33' E 135°18'0 0.0
2018-Feb-19 16:29N 34°33' E 135°18'0 0.0
2018-Feb-19 15:59N 34°33' E 135°18'0 0.0
2018-Feb-19 15:29N 34°33' E 135°18'0 0.0
2018-Feb-19 14:59N 34°33' E 135°18'0 0.0
2018-Feb-19 14:29N 34°33' E 135°18'0 0.0
2018-Feb-19 13:59N 34°33' E 135°18'0 0.0
2018-Feb-19 13:29N 34°33' E 135°18'0 0.1
2018-Feb-19 12:59N 34°33' E 135°18'0 0.0
2018-Feb-19 12:29N 34°33' E 135°18'0 0.0
2018-Feb-19 11:59N 34°33' E 135°18'0 0.0
2018-Feb-19 11:29N 34°33' E 135°18'0 0.0
2018-Feb-19 10:59N 34°33' E 135°18'0 0.1
2018-Feb-19 10:29N 34°33' E 135°18'0 0.0
2018-Feb-19 09:59N 34°33' E 135°18'0 0.0
2018-Feb-19 09:29N 34°33' E 135°18'0 0.0
2018-Feb-19 08:59N 34°33' E 135°18'0 0.0
2018-Feb-19 08:29N 34°33' E 135°18'0 0.0
2018-Feb-19 07:59N 34°33' E 135°18'0 0.0
2018-Feb-19 07:29N 34°33' E 135°18'0 0.0
2018-Feb-19 06:59N 34°33' E 135°18'0 0.0
2018-Feb-19 06:29N 34°33' E 135°18'0 0.0
2018-Feb-19 05:59N 34°33' E 135°18'0 0.0
2018-Feb-19 05:29N 34°33' E 135°18'0 0.0
2018-Feb-19 04:59N 34°33' E 135°18'0 0.0
2018-Feb-19 04:29N 34°33' E 135°18'0 0.0
2018-Feb-19 03:59N 34°33' E 135°18'0 0.0
2018-Feb-19 03:29N 34°33' E 135°18'0 0.0
2018-Feb-19 02:59N 34°33' E 135°18'0 0.0
2018-Feb-19 02:29N 34°33' E 135°18'0 0.0
2018-Feb-19 01:59N 34°33' E 135°18'0 0.1
2018-Feb-19 01:29N 34°33' E 135°18'0 0.1
2018-Feb-19 00:59N 34°33' E 135°18'0 0.1
2018-Feb-19 00:29N 34°33' E 135°18'0 0.1
2018-Feb-19 00:00N 34°33' E 135°18'611.1
2018-Feb-18 23:30N 34°30' E 135°13'714.6
2018-Feb-18 23:00N 34°24' E 135°07'714.6
2018-Feb-18 22:30N 34°19' E 135°01'713.6
2018-Feb-18 22:00N 34°12' E 134°60'713.9
2018-Feb-18 21:30N 34°05' E 135°00'713.8
2018-Feb-18 21:00N 33°58' E 135°01'713.7
2018-Feb-18 20:30N 33°52' E 135°02'713.5
2018-Feb-18 20:00N 33°46' E 135°07'1213.9
2018-Feb-18 19:09N 33°38' E 135°16'10311.6
2018-Feb-18 10:17N 34°33' E 137°01'412.3
2018-Feb-18 09:57N 34°35' E 136°57'613.8
2018-Feb-18 09:30N 34°39' E 136°51'714.1
2018-Feb-18 09:00N 34°45' E 136°47'714.3
2018-Feb-18 08:30N 34°51' E 136°43'613.0
2018-Feb-18 08:00N 34°58' E 136°41'2 3.0
2018-Feb-18 07:21N 34°58' E 136°39'0 0.0
2018-Feb-18 06:57N 34°58' E 136°39'0 0.0
2018-Feb-18 06:21N 34°58' E 136°39'0 0.0
2018-Feb-18 05:57N 34°58' E 136°39'0 0.0
2018-Feb-18 05:21N 34°58' E 136°39'0 0.0
2018-Feb-18 04:57N 34°58' E 136°39'0 0.0
2018-Feb-18 04:27N 34°58' E 136°39'0 0.0
2018-Feb-18 03:57N 34°58' E 136°39'0 0.0
2018-Feb-18 03:21N 34°58' E 136°39'0 0.0
2018-Feb-18 02:57N 34°58' E 136°39'0 0.0
2018-Feb-18 02:27N 34°58' E 136°39'0 0.0
2018-Feb-18 01:57N 34°58' E 136°39'0 0.0
2018-Feb-18 01:27N 34°58' E 136°39'0 0.0
2018-Feb-18 00:57N 34°58' E 136°39'0 0.0
2018-Feb-17 23:43N 34°58' E 136°39'0 0.5
2018-Feb-17 23:30N 34°58' E 136°39'1 1.4
2018-Feb-17 23:00N 34°57' E 136°38'0 0.0
2018-Feb-17 22:18N 34°57' E 136°38'0 0.0
2018-Feb-17 21:48N 34°57' E 136°38'0 0.0
2018-Feb-17 21:30N 34°57' E 136°38'0 0.0
2018-Feb-17 20:54N 34°57' E 136°38'0 0.0
2018-Feb-17 20:30N 34°57' E 136°38'0 0.0
2018-Feb-17 19:54N 34°57' E 136°38'0 0.0
2018-Feb-17 19:30N 34°57' E 136°38'0 0.0
2018-Feb-17 19:00N 34°57' E 136°38'0 0.0
2018-Feb-17 18:30N 34°57' E 136°38'0 0.0
2018-Feb-17 18:00N 34°57' E 136°38'0 0.0
2018-Feb-17 17:12N 34°57' E 136°38'0 0.0
2018-Feb-17 17:00N 34°57' E 136°38'0 0.0
2018-Feb-17 16:24N 34°57' E 136°38'0 0.0
2018-Feb-17 15:48N 34°57' E 136°38'0 0.0
2018-Feb-17 15:24N 34°57' E 136°38'0 0.0
2018-Feb-17 15:00N 34°57' E 136°38'0 0.0
2018-Feb-17 14:00N 34°57' E 136°38'0 0.0
2018-Feb-17 13:30N 34°57' E 136°38'0 0.0
2018-Feb-17 13:00N 34°57' E 136°38'0 0.0
2018-Feb-17 11:54N 34°57' E 136°38'0 0.0
2018-Feb-17 11:24N 34°57' E 136°38'0 0.0
2018-Feb-17 10:54N 34°57' E 136°38'0 0.0
2018-Feb-17 10:18N 34°57' E 136°38'0 0.0
2018-Feb-17 08:18N 34°57' E 136°38'0 0.0
2018-Feb-17 08:00N 34°57' E 136°38'0 0.0
2018-Feb-17 07:30N 34°57' E 136°38'0 0.0
2018-Feb-17 07:00N 34°57' E 136°38'0 0.0
2018-Feb-17 06:30N 34°57' E 136°38'0 0.5
2018-Feb-17 06:00N 34°57' E 136°39'3 5.2
2018-Feb-17 05:31N 34°58' E 136°42'2 4.2
2018-Feb-17 04:57N 34°58' E 136°39'0 0.0
2018-Feb-17 04:27N 34°58' E 136°39'0 0.0
2018-Feb-17 03:57N 34°58' E 136°39'0 0.0
2018-Feb-17 03:27N 34°58' E 136°39'0 0.0
2018-Feb-17 02:57N 34°58' E 136°39'0 0.7
2018-Feb-17 02:30N 34°57' E 136°39'1 1.0
2018-Feb-17 02:00N 34°58' E 136°39'0 0.3
2018-Feb-17 01:30N 34°58' E 136°39'0 0.0
2018-Feb-17 00:57N 34°58' E 136°39'0 0.0
2018-Feb-17 00:30N 34°58' E 136°39'0 0.0
2018-Feb-17 00:00N 34°58' E 136°39'0 0.3
2018-Feb-16 23:30N 34°58' E 136°39'3 6.3
2018-Feb-16 23:00N 34°55' E 136°42'2 3.5
2018-Feb-16 22:28N 34°54' E 136°43'0 0.0
2018-Feb-16 21:58N 34°54' E 136°43'0 0.0
2018-Feb-16 21:28N 34°54' E 136°43'1 3.1
2018-Feb-16 21:00N 34°53' E 136°44'714.0
2018-Feb-16 20:30N 34°46' E 136°47'713.8
2018-Feb-16 20:01N 34°41' E 136°52'713.8
2018-Feb-16 19:30N 34°36' E 136°58'10410.3
2018-Feb-16 09:26N 33°43' E 135°10'614.2
2018-Feb-16 09:00N 33°48' E 135°05'714.1
2018-Feb-16 08:30N 33°54' E 134°60'714.2
2018-Feb-16 08:00N 34°01' E 134°59'714.4
2018-Feb-16 07:30N 34°08' E 134°59'815.1
2018-Feb-16 07:00N 34°15' E 134°58'713.9
2018-Feb-16 06:30N 34°22' E 135°01'714.8
2018-Feb-16 06:00N 34°27' E 135°08'714.2
2018-Feb-16 05:31N 34°31' E 135°15'713.8
2018-Feb-16 05:00N 34°35' E 135°21'4 7.6
2018-Feb-16 04:31N 34°34' E 135°26'0 0.2
2018-Feb-16 03:58N 34°34' E 135°26'0 0.0
2018-Feb-16 03:22N 34°34' E 135°26'0 0.0
2018-Feb-16 02:58N 34°34' E 135°26'0 0.0
2018-Feb-16 02:28N 34°34' E 135°26'0 0.0
2018-Feb-16 01:58N 34°34' E 135°26'0 0.0
2018-Feb-16 01:25N 34°34' E 135°26'0 0.0
2018-Feb-16 00:58N 34°34' E 135°26'0 0.0
2018-Feb-16 00:28N 34°34' E 135°26'0 0.0
2018-Feb-15 23:58N 34°34' E 135°26'0 0.0
2018-Feb-15 23:19N 34°34' E 135°26'0 0.0
2018-Feb-15 23:00N 34°34' E 135°26'1 2.0
2018-Feb-15 22:30N 34°35' E 135°25'2 3.6
2018-Feb-15 22:00N 34°36' E 135°23'0 0.1
2018-Feb-15 21:29N 34°36' E 135°23'0 0.0
2018-Feb-15 20:59N 34°36' E 135°23'0 0.0
2018-Feb-15 20:29N 34°36' E 135°23'0 0.0
2018-Feb-15 19:59N 34°36' E 135°23'0 0.0
2018-Feb-15 19:29N 34°36' E 135°23'0 0.1
2018-Feb-15 18:59N 34°36' E 135°23'0 0.0
2018-Feb-15 18:29N 34°36' E 135°23'0 0.1
2018-Feb-15 17:59N 34°35' E 135°23'0 0.1
2018-Feb-15 17:29N 34°36' E 135°23'0 0.0
2018-Feb-15 16:59N 34°36' E 135°23'0 0.0
2018-Feb-15 16:29N 34°36' E 135°23'0 0.0
2018-Feb-15 15:59N 34°36' E 135°23'0 0.0
2018-Feb-15 15:29N 34°36' E 135°23'0 0.0
2018-Feb-15 14:59N 34°36' E 135°23'0 0.0
2018-Feb-15 14:29N 34°36' E 135°23'0 0.0
2018-Feb-15 13:59N 34°36' E 135°23'0 0.0
2018-Feb-15 13:29N 34°35' E 135°23'0 0.0
2018-Feb-15 12:59N 34°35' E 135°23'0 0.0
2018-Feb-15 12:29N 34°35' E 135°23'0 0.1
2018-Feb-15 11:59N 34°35' E 135°23'0 0.1
2018-Feb-15 11:29N 34°35' E 135°23'0 0.0
2018-Feb-15 10:59N 34°35' E 135°23'0 0.0
2018-Feb-15 10:29N 34°35' E 135°23'0 0.1
2018-Feb-15 09:59N 34°35' E 135°23'0 0.0
2018-Feb-15 09:29N 34°35' E 135°23'0 0.9
2018-Feb-15 09:00N 34°36' E 135°23'713.8
2018-Feb-15 08:30N 34°35' E 135°14'715.0
2018-Feb-15 08:01N 34°35' E 135°05'714.5
2018-Feb-15 07:31N 34°36' E 134°56'815.7
2018-Feb-15 07:01N 34°33' E 134°48'815.0
2018-Feb-15 06:30N 34°30' E 134°39'714.9
2018-Feb-15 06:00N 34°27' E 134°31'714.9
2018-Feb-15 05:30N 34°24' E 134°23'7 0.9
2018-Feb-14 21:53N 34°24' E 134°14'513.2
2018-Feb-14 21:30N 34°24' E 134°20'613.3
2018-Feb-14 21:00N 34°25' E 134°28'714.0
2018-Feb-14 20:30N 34°20' E 134°34'714.5
2018-Feb-14 19:59N 34°14' E 134°39'612.2
2018-Feb-14 19:30N 34°09' E 134°43'613.2
2018-Feb-14 19:00N 34°03' E 134°47'713.9
2018-Feb-14 18:30N 33°58' E 134°52'714.2
2018-Feb-14 18:00N 33°52' E 134°56'714.0
2018-Feb-14 17:30N 33°46' E 135°02'10910.6
2018-Feb-14 07:13N 34°33' E 137°01'311.9
2018-Feb-14 06:58N 34°35' E 136°58'613.5
2018-Feb-14 06:30N 34°39' E 136°53'713.6
2018-Feb-14 06:00N 34°44' E 136°48'713.7
2018-Feb-14 05:30N 34°51' E 136°46'613.0
2018-Feb-14 05:00N 34°57' E 136°47'3 5.9
2018-Feb-14 04:30N 34°59' E 136°50'0 0.0
2018-Feb-14 03:58N 34°59' E 136°50'0 0.0
2018-Feb-14 03:28N 34°59' E 136°50'0 0.0
2018-Feb-14 02:58N 34°59' E 136°50'0 0.0
2018-Feb-14 02:28N 34°59' E 136°50'0 0.0
2018-Feb-14 01:58N 34°59' E 136°50'0 0.1
2018-Feb-14 01:30N 34°59' E 136°50'2 3.4
2018-Feb-14 01:00N 34°59' E 136°48'0 0.2
2018-Feb-14 00:26N 34°59' E 136°48'0 0.0
2018-Feb-13 23:59N 34°59' E 136°48'0 0.0
2018-Feb-13 23:29N 34°59' E 136°48'0 0.0
2018-Feb-13 22:59N 34°59' E 136°48'0 0.1
2018-Feb-13 22:26N 34°59' E 136°48'0 0.0
2018-Feb-13 21:56N 34°59' E 136°48'0 0.0
2018-Feb-13 21:29N 34°59' E 136°48'0 0.1
2018-Feb-13 21:00N 34°59' E 136°48'4 8.0
2018-Feb-13 20:30N 34°55' E 136°46'714.3
2018-Feb-13 20:00N 34°48' E 136°48'713.7
2018-Feb-13 19:30N 34°42' E 136°52'714.0
2018-Feb-13 19:00N 34°37' E 136°57'10410.9
2018-Feb-13 09:23N 33°43' E 135°09'615.0
2018-Feb-13 09:00N 33°47' E 135°04'715.0
2018-Feb-13 08:30N 33°52' E 134°58'714.7
2018-Feb-13 08:01N 33°58' E 134°53'714.8
2018-Feb-13 07:30N 34°04' E 134°48'814.9
2018-Feb-13 07:00N 34°10' E 134°42'714.2
2018-Feb-13 06:30N 34°16' E 134°37'714.8
2018-Feb-13 06:00N 34°18' E 134°29'83 7.7
2018-Feb-12 19:13N 34°04' E 132°50'514.6
2018-Feb-12 18:54N 34°01' E 132°46'513.7
2018-Feb-12 18:30N 33°57' E 132°42'713.6
2018-Feb-12 18:01N 33°52' E 132°36'713.5
2018-Feb-12 17:29N 33°48' E 132°29'713.6
2018-Feb-12 17:00N 33°45' E 132°22'813.8
2018-Feb-12 16:26N 33°43' E 132°13'1113.6
2018-Feb-12 15:36N 33°43' E 131°59'114.2
2018-Feb-12 15:30N 33°43' E 131°58'714.6
2018-Feb-12 15:00N 33°44' E 131°49'815.2
2018-Feb-12 14:30N 33°46' E 131°40'715.0
2018-Feb-12 14:01N 33°47' E 131°31'714.9
2018-Feb-12 13:31N 33°49' E 131°23'815.0
2018-Feb-12 13:00N 33°51' E 131°14'510.7
2018-Feb-12 12:31N 33°56' E 131°12'0 0.5
2018-Feb-12 11:53N 33°56' E 131°11'0 0.0
2018-Feb-12 11:30N 33°56' E 131°11'0 0.0
2018-Feb-12 11:00N 33°56' E 131°11'0 0.0
2018-Feb-12 10:30N 33°56' E 131°11'0 0.0
2018-Feb-12 10:00N 33°56' E 131°11'0 0.0
2018-Feb-12 09:30N 33°56' E 131°11'0 0.0
2018-Feb-12 09:00N 33°56' E 131°11'0 0.6
2018-Feb-12 08:30N 33°56' E 131°12'2 3.7
2018-Feb-12 08:00N 33°54' E 131°12'1 2.2
2018-Feb-12 07:30N 33°53' E 131°12'0 0.0
2018-Feb-12 07:00N 33°53' E 131°12'0 0.0
2018-Feb-12 06:30N 33°53' E 131°12'0 0.0
2018-Feb-12 06:00N 33°53' E 131°12'0 0.0
2018-Feb-12 05:30N 33°53' E 131°12'0 0.1
2018-Feb-12 05:00N 33°53' E 131°12'0 0.0
2018-Feb-12 04:30N 33°53' E 131°12'0 0.0
2018-Feb-12 04:00N 33°53' E 131°12'0 0.0
2018-Feb-12 03:30N 33°53' E 131°12'0 0.2
2018-Feb-12 03:00N 33°53' E 131°12'611.3
2018-Feb-12 02:30N 33°51' E 131°18'713.2
2018-Feb-12 02:00N 33°50' E 131°26'713.4
2018-Feb-12 01:30N 33°48' E 131°34'612.6
2018-Feb-12 01:00N 33°47' E 131°41'612.5
2018-Feb-12 00:30N 33°45' E 131°49'2012.8
2018-Feb-11 22:54N 33°43' E 132°13'813.5
2018-Feb-11 22:17N 33°46' E 132°23'413.3
2018-Feb-11 21:59N 33°48' E 132°27'712.9
2018-Feb-11 21:29N 33°51' E 132°33'613.1
2018-Feb-11 21:00N 33°55' E 132°39'612.3
2018-Feb-11 20:30N 33°60' E 132°44'  
Track history (hours):
 
Tides and Currents Weather Stations Pressure Air Temp Water Temp Dewpoint Dewpoint Depression Visibility Wind Speed Wind Dir Waves Ship Positions

Oozu Maru

Last reported at 2018-Feb-21 17:30 UTC. Time now 2018-Feb-21 17:32 UTC.
Position N 35°33' E 140°02'.

Length 90 m; draft 4.5 m.

Type: Tanker. MMSI: 431008812.

Date/timePositionNaut miles runAvg speedWind from/ knotsBaromVisibWave heightAir tempDewpointWater temp
2018-Feb-21 17:30N 35°33' E 140°02'0 0.0
2018-Feb-21 16:57N 35°33' E 140°02'0 0.0
2018-Feb-21 16:30N 35°33' E 140°02'0 0.0
2018-Feb-21 15:57N 35°33' E 140°02'0 0.0
2018-Feb-21 15:30N 35°33' E 140°02'0 0.0
2018-Feb-21 15:00N 35°33' E 140°02'0 0.0
2018-Feb-21 14:27N 35°33' E 140°02'0 0.0
2018-Feb-21 14:00N 35°33' E 140°02'0 0.0
2018-Feb-21 13:27N 35°33' E 140°02'0 0.0
2018-Feb-21 13:00N 35°33' E 140°02'0 0.0
2018-Feb-21 12:30N 35°33' E 140°02'0 0.0
2018-Feb-21 12:00N 35°33' E 140°02'0 0.0
2018-Feb-21 11:30N 35°33' E 140°02'0 0.0
2018-Feb-21 11:00N 35°33' E 140°02'0 0.0
2018-Feb-21 10:27N 35°33' E 140°02'0 0.0
2018-Feb-21 09:57N 35°33' E 140°02'0 0.0
2018-Feb-21 09:30N 35°33' E 140°02'0 0.0
2018-Feb-21 09:00N 35°33' E 140°02'0 0.0
2018-Feb-21 08:30N 35°33' E 140°02'0 0.0
2018-Feb-21 07:57N 35°33' E 140°02'0 0.0
2018-Feb-21 07:30N 35°33' E 140°02'0 0.1
2018-Feb-21 07:00N 35°33' E 140°02'0 0.0
2018-Feb-21 06:24N 35°33' E 140°02'0 0.2
2018-Feb-21 05:57N 35°33' E 140°02'0 0.1
2018-Feb-21 05:30N 35°33' E 140°02'0 0.5
2018-Feb-21 05:00N 35°33' E 140°02'713.5
2018-Feb-21 04:30N 35°30' E 139°55'713.8
2018-Feb-21 04:00N 35°26' E 139°48'612.9
2018-Feb-21 03:31N 35°20' E 139°44'612.0
2018-Feb-21 03:00N 35°14' E 139°47'713.6
2018-Feb-21 02:30N 35°08' E 139°45'714.0
2018-Feb-21 02:00N 35°03' E 139°39'713.7
2018-Feb-21 01:29N 34°58' E 139°32'713.9
2018-Feb-21 00:59N 34°53' E 139°26'713.7
2018-Feb-21 00:30N 34°49' E 139°20'713.8
2018-Feb-21 00:00N 34°44' E 139°14'713.2
2018-Feb-20 23:30N 34°40' E 139°08'712.6
2018-Feb-20 22:59N 34°35' E 139°02'612.4
2018-Feb-20 22:30N 34°32' E 138°56'813.7
2018-Feb-20 21:57N 34°30' E 138°47'714.5
2018-Feb-20 21:27N 34°29' E 138°38'714.7
2018-Feb-20 20:59N 34°28' E 138°30'814.3
2018-Feb-20 20:25N 34°26' E 138°21'715.3
2018-Feb-20 19:59N 34°25' E 138°13'15812.5
2018-Feb-20 07:23N 33°43' E 135°09'615.0
2018-Feb-20 06:58N 33°48' E 135°04'715.0
2018-Feb-20 06:30N 33°54' E 134°60'815.3
2018-Feb-20 06:00N 34°01' E 134°59'815.1
2018-Feb-20 05:30N 34°09' E 134°58'715.0
2018-Feb-20 05:00N 34°16' E 134°58'713.7
2018-Feb-20 04:30N 34°23' E 135°01'714.4
2018-Feb-20 04:00N 34°27' E 135°08'714.0
2018-Feb-20 03:30N 34°32' E 135°15'713.9
2018-Feb-20 03:00N 34°36' E 135°21'4 7.5
2018-Feb-20 02:30N 34°35' E 135°26'0 0.0
2018-Feb-20 01:59N 34°35' E 135°26'0 0.0
2018-Feb-20 01:29N 34°35' E 135°26'0 0.0
2018-Feb-20 00:59N 34°35' E 135°26'0 0.0
2018-Feb-20 00:29N 34°35' E 135°26'0 0.0
2018-Feb-19 23:59N 34°35' E 135°26'0 0.0
2018-Feb-19 23:29N 34°35' E 135°26'0 0.0
2018-Feb-19 22:59N 34°35' E 135°26'1 2.0
2018-Feb-19 22:30N 34°35' E 135°25'4 8.7
2018-Feb-19 22:00N 34°35' E 135°20'2 4.3
2018-Feb-19 21:29N 34°33' E 135°18'0 0.0
2018-Feb-19 20:59N 34°33' E 135°18'0 0.0
2018-Feb-19 20:29N 34°33' E 135°18'0 0.0
2018-Feb-19 19:59N 34°33' E 135°18'0 0.0
2018-Feb-19 19:29N 34°33' E 135°18'0 0.0
2018-Feb-19 18:59N 34°33' E 135°18'0 0.0
2018-Feb-19 18:29N 34°33' E 135°18'0 0.0
2018-Feb-19 17:59N 34°33' E 135°18'0 0.0
2018-Feb-19 17:29N 34°33' E 135°18'0 0.0
2018-Feb-19 16:59N 34°33' E 135°18'0 0.0
2018-Feb-19 16:29N 34°33' E 135°18'0 0.0
2018-Feb-19 15:59N 34°33' E 135°18'0 0.0
2018-Feb-19 15:29N 34°33' E 135°18'0 0.0
2018-Feb-19 14:59N 34°33' E 135°18'0 0.0
2018-Feb-19 14:29N 34°33' E 135°18'0 0.0
2018-Feb-19 13:59N 34°33' E 135°18'0 0.0
2018-Feb-19 13:29N 34°33' E 135°18'0 0.1
2018-Feb-19 12:59N 34°33' E 135°18'0 0.0
2018-Feb-19 12:29N 34°33' E 135°18'0 0.0
2018-Feb-19 11:59N 34°33' E 135°18'0 0.0
2018-Feb-19 11:29N 34°33' E 135°18'0 0.0
2018-Feb-19 10:59N 34°33' E 135°18'0 0.1
2018-Feb-19 10:29N 34°33' E 135°18'0 0.0
2018-Feb-19 09:59N 34°33' E 135°18'0 0.0
2018-Feb-19 09:29N 34°33' E 135°18'0 0.0
2018-Feb-19 08:59N 34°33' E 135°18'0 0.0
2018-Feb-19 08:29N 34°33' E 135°18'0 0.0
2018-Feb-19 07:59N 34°33' E 135°18'0 0.0
2018-Feb-19 07:29N 34°33' E 135°18'0 0.0
2018-Feb-19 06:59N 34°33' E 135°18'0 0.0
2018-Feb-19 06:29N 34°33' E 135°18'0 0.0
2018-Feb-19 05:59N 34°33' E 135°18'0 0.0
2018-Feb-19 05:29N 34°33' E 135°18'0 0.0
2018-Feb-19 04:59N 34°33' E 135°18'0 0.0
2018-Feb-19 04:29N 34°33' E 135°18'0 0.0
2018-Feb-19 03:59N 34°33' E 135°18'0 0.0
2018-Feb-19 03:29N 34°33' E 135°18'0 0.0
2018-Feb-19 02:59N 34°33' E 135°18'0 0.0
2018-Feb-19 02:29N 34°33' E 135°18'0 0.0
2018-Feb-19 01:59N 34°33' E 135°18'0 0.1
2018-Feb-19 01:29N 34°33' E 135°18'0 0.1
2018-Feb-19 00:59N 34°33' E 135°18'0 0.1
2018-Feb-19 00:29N 34°33' E 135°18'0 0.1
2018-Feb-19 00:00N 34°33' E 135°18'611.1
2018-Feb-18 23:30N 34°30' E 135°13'714.6
2018-Feb-18 23:00N 34°24' E 135°07'714.6
2018-Feb-18 22:30N 34°19' E 135°01'713.6
2018-Feb-18 22:00N 34°12' E 134°60'713.9
2018-Feb-18 21:30N 34°05' E 135°00'713.8
2018-Feb-18 21:00N 33°58' E 135°01'713.7
2018-Feb-18 20:30N 33°52' E 135°02'713.5
2018-Feb-18 20:00N 33°46' E 135°07'1213.9
2018-Feb-18 19:09N 33°38' E 135°16'10311.6
2018-Feb-18 10:17N 34°33' E 137°01'412.3
2018-Feb-18 09:57N 34°35' E 136°57'613.8
2018-Feb-18 09:30N 34°39' E 136°51'714.1
2018-Feb-18 09:00N 34°45' E 136°47'714.3
2018-Feb-18 08:30N 34°51' E 136°43'613.0
2018-Feb-18 08:00N 34°58' E 136°41'2 3.0
2018-Feb-18 07:21N 34°58' E 136°39'0 0.0
2018-Feb-18 06:57N 34°58' E 136°39'0 0.0
2018-Feb-18 06:21N 34°58' E 136°39'0 0.0
2018-Feb-18 05:57N 34°58' E 136°39'0 0.0
2018-Feb-18 05:21N 34°58' E 136°39'0 0.0
2018-Feb-18 04:57N 34°58' E 136°39'0 0.0
2018-Feb-18 04:27N 34°58' E 136°39'0 0.0
2018-Feb-18 03:57N 34°58' E 136°39'0 0.0
2018-Feb-18 03:21N 34°58' E 136°39'0 0.0
2018-Feb-18 02:57N 34°58' E 136°39'0 0.0
2018-Feb-18 02:27N 34°58' E 136°39'0 0.0
2018-Feb-18 01:57N 34°58' E 136°39'0 0.0
2018-Feb-18 01:27N 34°58' E 136°39'0 0.0
2018-Feb-18 00:57N 34°58' E 136°39'0 0.0
2018-Feb-17 23:43N 34°58' E 136°39'0 0.5
2018-Feb-17 23:30N 34°58' E 136°39'1 1.4
2018-Feb-17 23:00N 34°57' E 136°38'0 0.0
2018-Feb-17 22:18N 34°57' E 136°38'0 0.0
2018-Feb-17 21:48N 34°57' E 136°38'0 0.0
2018-Feb-17 21:30N 34°57' E 136°38'0 0.0
2018-Feb-17 20:54N 34°57' E 136°38'0 0.0
2018-Feb-17 20:30N 34°57' E 136°38'0 0.0
2018-Feb-17 19:54N 34°57' E 136°38'0 0.0
2018-Feb-17 19:30N 34°57' E 136°38'0 0.0
2018-Feb-17 19:00N 34°57' E 136°38'0 0.0
2018-Feb-17 18:30N 34°57' E 136°38'0 0.0
2018-Feb-17 18:00N 34°57' E 136°38'0 0.0
2018-Feb-17 17:12N 34°57' E 136°38'0 0.0
2018-Feb-17 17:00N 34°57' E 136°38'0 0.0
2018-Feb-17 16:24N 34°57' E 136°38'0 0.0
2018-Feb-17 15:48N 34°57' E 136°38'0 0.0
2018-Feb-17 15:24N 34°57' E 136°38'0 0.0
2018-Feb-17 15:00N 34°57' E 136°38'0 0.0
2018-Feb-17 14:00N 34°57' E 136°38'0 0.0
2018-Feb-17 13:30N 34°57' E 136°38'0 0.0
2018-Feb-17 13:00N 34°57' E 136°38'0 0.0
2018-Feb-17 11:54N 34°57' E 136°38'0 0.0
2018-Feb-17 11:24N 34°57' E 136°38'0 0.0
2018-Feb-17 10:54N 34°57' E 136°38'0 0.0
2018-Feb-17 10:18N 34°57' E 136°38'0 0.0
2018-Feb-17 08:18N 34°57' E 136°38'0 0.0
2018-Feb-17 08:00N 34°57' E 136°38'0 0.0
2018-Feb-17 07:30N 34°57' E 136°38'0 0.0
2018-Feb-17 07:00N 34°57' E 136°38'0 0.0
2018-Feb-17 06:30N 34°57' E 136°38'0 0.5
2018-Feb-17 06:00N 34°57' E 136°39'3 5.2
2018-Feb-17 05:31N 34°58' E 136°42'2 4.2
2018-Feb-17 04:57N 34°58' E 136°39'0 0.0
2018-Feb-17 04:27N 34°58' E 136°39'0 0.0
2018-Feb-17 03:57N 34°58' E 136°39'0 0.0
2018-Feb-17 03:27N 34°58' E 136°39'0 0.0
2018-Feb-17 02:57N 34°58' E 136°39'0 0.7
2018-Feb-17 02:30N 34°57' E 136°39'1 1.0
2018-Feb-17 02:00N 34°58' E 136°39'0 0.3
2018-Feb-17 01:30N 34°58' E 136°39'0 0.0
2018-Feb-17 00:57N 34°58' E 136°39'0 0.0
2018-Feb-17 00:30N 34°58' E 136°39'0 0.0
2018-Feb-17 00:00N 34°58' E 136°39'0 0.3
2018-Feb-16 23:30N 34°58' E 136°39'3 6.3
2018-Feb-16 23:00N 34°55' E 136°42'2 3.5
2018-Feb-16 22:28N 34°54' E 136°43'0 0.0
2018-Feb-16 21:58N 34°54' E 136°43'0 0.0
2018-Feb-16 21:28N 34°54' E 136°43'1 3.1
2018-Feb-16 21:00N 34°53' E 136°44'714.0
2018-Feb-16 20:30N 34°46' E 136°47'713.8
2018-Feb-16 20:01N 34°41' E 136°52'713.8
2018-Feb-16 19:30N 34°36' E 136°58'10410.3
2018-Feb-16 09:26N 33°43' E 135°10'614.2
2018-Feb-16 09:00N 33°48' E 135°05'714.1
2018-Feb-16 08:30N 33°54' E 134°60'714.2
2018-Feb-16 08:00N 34°01' E 134°59'714.4
2018-Feb-16 07:30N 34°08' E 134°59'815.1
2018-Feb-16 07:00N 34°15' E 134°58'713.9
2018-Feb-16 06:30N 34°22' E 135°01'714.8
2018-Feb-16 06:00N 34°27' E 135°08'714.2
2018-Feb-16 05:31N 34°31' E 135°15'713.8
2018-Feb-16 05:00N 34°35' E 135°21'4 7.6
2018-Feb-16 04:31N 34°34' E 135°26'0 0.2
2018-Feb-16 03:58N 34°34' E 135°26'0 0.0
2018-Feb-16 03:22N 34°34' E 135°26'0 0.0
2018-Feb-16 02:58N 34°34' E 135°26'0 0.0
2018-Feb-16 02:28N 34°34' E 135°26'0 0.0
2018-Feb-16 01:58N 34°34' E 135°26'0 0.0
2018-Feb-16 01:25N 34°34' E 135°26'0 0.0
2018-Feb-16 00:58N 34°34' E 135°26'0 0.0
2018-Feb-16 00:28N 34°34' E 135°26'0 0.0
2018-Feb-15 23:58N 34°34' E 135°26'0 0.0
2018-Feb-15 23:19N 34°34' E 135°26'0 0.0
2018-Feb-15 23:00N 34°34' E 135°26'1 2.0
2018-Feb-15 22:30N 34°35' E 135°25'2 3.6
2018-Feb-15 22:00N 34°36' E 135°23'0 0.1
2018-Feb-15 21:29N 34°36' E 135°23'0 0.0
2018-Feb-15 20:59N 34°36' E 135°23'0 0.0
2018-Feb-15 20:29N 34°36' E 135°23'0 0.0
2018-Feb-15 19:59N 34°36' E 135°23'0 0.0
2018-Feb-15 19:29N 34°36' E 135°23'0 0.1
2018-Feb-15 18:59N 34°36' E 135°23'0 0.0
2018-Feb-15 18:29N 34°36' E 135°23'0 0.1
2018-Feb-15 17:59N 34°35' E 135°23'0 0.1
2018-Feb-15 17:29N 34°36' E 135°23'0 0.0
2018-Feb-15 16:59N 34°36' E 135°23'0 0.0
2018-Feb-15 16:29N 34°36' E 135°23'0 0.0
2018-Feb-15 15:59N 34°36' E 135°23'0 0.0
2018-Feb-15 15:29N 34°36' E 135°23'0 0.0
2018-Feb-15 14:59N 34°36' E 135°23'0 0.0
2018-Feb-15 14:29N 34°36' E 135°23'0 0.0
2018-Feb-15 13:59N 34°36' E 135°23'0 0.0
2018-Feb-15 13:29N 34°35' E 135°23'0 0.0
2018-Feb-15 12:59N 34°35' E 135°23'0 0.0
2018-Feb-15 12:29N 34°35' E 135°23'0 0.1
2018-Feb-15 11:59N 34°35' E 135°23'0 0.1
2018-Feb-15 11:29N 34°35' E 135°23'0 0.0
2018-Feb-15 10:59N 34°35' E 135°23'0 0.0
2018-Feb-15 10:29N 34°35' E 135°23'0 0.1
2018-Feb-15 09:59N 34°35' E 135°23'0 0.0
2018-Feb-15 09:29N 34°35' E 135°23'0 0.9
2018-Feb-15 09:00N 34°36' E 135°23'713.8
2018-Feb-15 08:30N 34°35' E 135°14'715.0
2018-Feb-15 08:01N 34°35' E 135°05'714.5
2018-Feb-15 07:31N 34°36' E 134°56'815.7
2018-Feb-15 07:01N 34°33' E 134°48'815.0
2018-Feb-15 06:30N 34°30' E 134°39'714.9
2018-Feb-15 06:00N 34°27' E 134°31'714.9
2018-Feb-15 05:30N 34°24' E 134°23'7 0.9
2018-Feb-14 21:53N 34°24' E 134°14'513.2
2018-Feb-14 21:30N 34°24' E 134°20'613.3
2018-Feb-14 21:00N 34°25' E 134°28'714.0
2018-Feb-14 20:30N 34°20' E 134°34'714.5
2018-Feb-14 19:59N 34°14' E 134°39'612.2
2018-Feb-14 19:30N 34°09' E 134°43'613.2
2018-Feb-14 19:00N 34°03' E 134°47'713.9
2018-Feb-14 18:30N 33°58' E 134°52'714.2
2018-Feb-14 18:00N 33°52' E 134°56'714.0
2018-Feb-14 17:30N 33°46' E 135°02'10910.6
2018-Feb-14 07:13N 34°33' E 137°01'311.9
2018-Feb-14 06:58N 34°35' E 136°58'613.5
2018-Feb-14 06:30N 34°39' E 136°53'713.6
2018-Feb-14 06:00N 34°44' E 136°48'713.7
2018-Feb-14 05:30N 34°51' E 136°46'613.0
2018-Feb-14 05:00N 34°57' E 136°47'3 5.9
2018-Feb-14 04:30N 34°59' E 136°50'0 0.0
2018-Feb-14 03:58N 34°59' E 136°50'0 0.0
2018-Feb-14 03:28N 34°59' E 136°50'0 0.0
2018-Feb-14 02:58N 34°59' E 136°50'0 0.0
2018-Feb-14 02:28N 34°59' E 136°50'0 0.0
2018-Feb-14 01:58N 34°59' E 136°50'0 0.1
2018-Feb-14 01:30N 34°59' E 136°50'2 3.4
2018-Feb-14 01:00N 34°59' E 136°48'0 0.2
2018-Feb-14 00:26N 34°59' E 136°48'0 0.0
2018-Feb-13 23:59N 34°59' E 136°48'0 0.0
2018-Feb-13 23:29N 34°59' E 136°48'0 0.0
2018-Feb-13 22:59N 34°59' E 136°48'0 0.1
2018-Feb-13 22:26N 34°59' E 136°48'0 0.0
2018-Feb-13 21:56N 34°59' E 136°48'0 0.0
2018-Feb-13 21:29N 34°59' E 136°48'0 0.1
2018-Feb-13 21:00N 34°59' E 136°48'4 8.0
2018-Feb-13 20:30N 34°55' E 136°46'714.3
2018-Feb-13 20:00N 34°48' E 136°48'713.7
2018-Feb-13 19:30N 34°42' E 136°52'714.0
2018-Feb-13 19:00N 34°37' E 136°57'10410.9
2018-Feb-13 09:23N 33°43' E 135°09'615.0
2018-Feb-13 09:00N 33°47' E 135°04'715.0
2018-Feb-13 08:30N 33°52' E 134°58'714.7
2018-Feb-13 08:01N 33°58' E 134°53'714.8
2018-Feb-13 07:30N 34°04' E 134°48'814.9
2018-Feb-13 07:00N 34°10' E 134°42'714.2
2018-Feb-13 06:30N 34°16' E 134°37'714.8
2018-Feb-13 06:00N 34°18' E 134°29'83 7.7
2018-Feb-12 19:13N 34°04' E 132°50'514.6
2018-Feb-12 18:54N 34°01' E 132°46'513.7
2018-Feb-12 18:30N 33°57' E 132°42'713.6
2018-Feb-12 18:01N 33°52' E 132°36'713.5
2018-Feb-12 17:29N 33°48' E 132°29'713.6
2018-Feb-12 17:00N 33°45' E 132°22'813.8
2018-Feb-12 16:26N 33°43' E 132°13'1113.6
2018-Feb-12 15:36N 33°43' E 131°59'114.2
2018-Feb-12 15:30N 33°43' E 131°58'714.6
2018-Feb-12 15:00N 33°44' E 131°49'815.2
2018-Feb-12 14:30N 33°46' E 131°40'715.0
2018-Feb-12 14:01N 33°47' E 131°31'714.9
2018-Feb-12 13:31N 33°49' E 131°23'815.0
2018-Feb-12 13:00N 33°51' E 131°14'510.7
2018-Feb-12 12:31N 33°56' E 131°12'0 0.5
2018-Feb-12 11:53N 33°56' E 131°11'0 0.0
2018-Feb-12 11:30N 33°56' E 131°11'0 0.0
2018-Feb-12 11:00N 33°56' E 131°11'0 0.0
2018-Feb-12 10:30N 33°56' E 131°11'0 0.0
2018-Feb-12 10:00N 33°56' E 131°11'0 0.0
2018-Feb-12 09:30N 33°56' E 131°11'0 0.0
2018-Feb-12 09:00N 33°56' E 131°11'0 0.6
2018-Feb-12 08:30N 33°56' E 131°12'2 3.7
2018-Feb-12 08:00N 33°54' E 131°12'1 2.2
2018-Feb-12 07:30N 33°53' E 131°12'0 0.0
2018-Feb-12 07:00N 33°53' E 131°12'0 0.0
2018-Feb-12 06:30N 33°53' E 131°12'0 0.0
2018-Feb-12 06:00N 33°53' E 131°12'0 0.0
2018-Feb-12 05:30N 33°53' E 131°12'0 0.1
2018-Feb-12 05:00N 33°53' E 131°12'0 0.0
2018-Feb-12 04:30N 33°53' E 131°12'0 0.0
2018-Feb-12 04:00N 33°53' E 131°12'0 0.0
2018-Feb-12 03:30N 33°53' E 131°12'0 0.2
2018-Feb-12 03:00N 33°53' E 131°12'611.3
2018-Feb-12 02:30N 33°51' E 131°18'713.2
2018-Feb-12 02:00N 33°50' E 131°26'713.4
2018-Feb-12 01:30N 33°48' E 131°34'612.6
2018-Feb-12 01:00N 33°47' E 131°41'612.5
2018-Feb-12 00:30N 33°45' E 131°49'2012.8
2018-Feb-11 22:54N 33°43' E 132°13'813.5
2018-Feb-11 22:17N 33°46' E 132°23'413.3
2018-Feb-11 21:59N 33°48' E 132°27'712.9
2018-Feb-11 21:29N 33°51' E 132°33'613.1
2018-Feb-11 21:00N 33°55' E 132°39'612.3
2018-Feb-11 20:30N 33°60' E 132°44'  

Dump ship's entire track history